Time;durP1;ratioP1;P1;durP2;ratioP2;P2;SDS_P1;SDS_P2;PMS_P1;PMS_P2;Temp;Humidity;BMP_temperature;BMP_pressure;BME280_temperature;BME280_humidity;BME280_pressure;Samples;Min_cycle;Max_cycle;Signal;HPM_P1;HPM_P2
2022/05/19 00:00:21;;;;;;;0.30;0.30;;;;;;;;;;5039185;28;19995;-80
2022/05/19 00:02:47;;;;;;;3.30;1.40;;;;;;;;;;5038721;28;20107;-79
2022/05/19 00:05:13;;;;;;;0.45;0.20;;;;;;;;;;5035688;28;20472;-80
2022/05/19 00:07:39;;;;;;;0.32;0.25;;;;;;;;;;5028383;28;20133;-86
2022/05/19 00:10:05;;;;;;;1.02;0.63;;;;;;;;;;5026189;28;20043;-78
2022/05/19 00:12:31;;;;;;;;;;;;;;;;;;5041729;28;20099;-86
2022/05/19 00:14:57;;;;;;;0.80;0.80;;;;;;;;;;5035261;28;20474;-80
2022/05/19 00:17:24;;;;;;;0.25;0.25;;;;;;;;;;5030425;28;20144;-85
2022/05/19 00:19:50;;;;;;;0.45;0.35;;;;;;;;;;5032424;28;20038;-86
2022/05/19 00:22:16;;;;;;;0.35;0.30;;;;;;;;;;5036559;28;20086;-85
2022/05/19 00:24:42;;;;;;;4.35;2.08;;;;;;;;;;5035243;28;20788;-87
2022/05/19 00:27:08;;;;;;;0.22;0.22;;;;;;;;;;5029574;28;20503;-91
2022/05/19 00:29:34;;;;;;;0.00;0.00;;;;;;;;;;5032578;28;20431;-90
2022/05/19 00:32:00;;;;;;;1.35;0.90;;;;;;;;;;5028993;28;20040;-91
2022/05/19 00:34:26;;;;;;;1.23;0.90;;;;;;;;;;5035464;28;20460;-91
2022/05/19 00:37:00;;;;;;;0.40;0.40;;;;;;;;;;5041419;28;20091;-93
2022/05/19 00:39:27;;;;;;;0.95;0.90;;;;;;;;;;5031798;28;20041;-76
2022/05/19 00:44:39;;;;;;;0.00;0.00;;;;;;;;;;5033909;28;20039;-77
2022/05/19 00:47:06;;;;;;;1.48;0.40;;;;;;;;;;5029887;28;20071;-77
2022/05/19 00:49:33;;;;;;;0.10;0.10;;;;;;;;;;5029672;28;20052;-76
2022/05/19 00:52:00;;;;;;;0.10;0.10;;;;;;;;;;5029372;28;20033;-77
2022/05/19 00:54:26;;;;;;;;;;;;;;;;;;5028087;28;20033;-76
2022/05/19 00:56:56;;;;;;;0.70;0.70;;;;;;;;;;5013712;28;20291;-77
2022/05/19 00:59:29;;;;;;;0.60;0.60;;;;;;;;;;5010542;28;20051;-76
2022/05/19 01:01:56;;;;;;;0.22;0.22;;;;;;;;;;5031812;28;20053;-76
2022/05/19 01:04:28;;;;;;;1.10;0.55;;;;;;;;;;5036237;28;20040;-76
2022/05/19 01:06:56;;;;;;;0.10;0.10;;;;;;;;;;5030934;28;20028;-77
2022/05/19 01:09:22;;;;;;;0.25;0.25;;;;;;;;;;5027156;28;20036;-77
2022/05/19 01:11:54;;;;;;;1.35;0.50;;;;;;;;;;5026243;28;20024;-76
2022/05/19 01:14:20;;;;;;;0.93;0.57;;;;;;;;;;5032729;28;20078;-77
2022/05/19 01:16:46;;;;;;;0.15;0.15;;;;;;;;;;5039303;28;20107;-76
2022/05/19 01:19:20;;;;;;;0.52;0.52;;;;;;;;;;5041545;28;20045;-76
2022/05/19 01:21:46;;;;;;;0.75;0.38;;;;;;;;;;5041568;28;20036;-76
2022/05/19 01:24:19;;;;;;;0.10;0.10;;;;;;;;;;5027295;28;20033;-76
2022/05/19 01:26:45;;;;;;;0.30;0.30;;;;;;;;;;5028123;28;20036;-77
2022/05/19 01:29:12;;;;;;;0.10;0.10;;;;;;;;;;5032214;28;20033;-76
2022/05/19 01:31:47;;;;;;;0.20;0.20;;;;;;;;;;5026712;28;20060;-77
2022/05/19 01:34:14;;;;;;;0.08;0.08;;;;;;;;;;5008200;28;20651;-76
2022/05/19 01:36:40;;;;;;;0.25;0.20;;;;;;;;;;5027219;28;20052;-76
2022/05/19 01:39:16;;;;;;;0.25;0.25;;;;;;;;;;5030518;28;20037;-77
2022/05/19 01:41:54;;;;;;;0.40;0.38;;;;;;;;;;5033670;28;20065;-89
2022/05/19 01:44:28;;;;;;;0.25;0.22;;;;;;;;;;5029976;28;20044;-89
2022/05/19 01:47:07;;;;;;;0.20;0.20;;;;;;;;;;5028973;28;20147;-89
2022/05/19 01:49:33;;;;;;;0.50;0.40;;;;;;;;;;5027972;28;20158;-84
2022/05/19 01:52:08;;;;;;;0.52;0.35;;;;;;;;;;5029272;28;20049;-85
2022/05/19 01:54:38;;;;;;;0.52;0.52;;;;;;;;;;5027155;28;20036;-85
2022/05/19 01:57:10;;;;;;;0.47;0.47;;;;;;;;;;5028633;28;20029;-85
2022/05/19 01:59:49;;;;;;;0.20;0.20;;;;;;;;;;5029034;28;20129;-85
2022/05/19 02:02:24;;;;;;;0.13;0.13;;;;;;;;;;5027628;28;20039;-87
2022/05/19 02:04:56;;;;;;;0.93;0.17;;;;;;;;;;5029458;28;20031;-87
2022/05/19 02:07:23;;;;;;;0.22;0.22;;;;;;;;;;5028128;28;20036;-86
2022/05/19 02:09:51;;;;;;;0.63;0.32;;;;;;;;;;5026523;28;20025;-86
2022/05/19 02:12:18;;;;;;;0.00;0.00;;;;;;;;;;5007240;28;20041;-85
2022/05/19 02:14:48;;;;;;;0.00;0.00;;;;;;;;;;5024999;28;20017;-86
2022/05/19 02:17:16;;;;;;;0.10;0.10;;;;;;;;;;5024764;28;20098;-86
2022/05/19 02:19:46;;;;;;;0.43;0.32;;;;;;;;;;5012353;28;20037;-86
2022/05/19 02:22:15;;;;;;;0.47;0.38;;;;;;;;;;5025413;28;20032;-84
2022/05/19 02:24:45;;;;;;;0.88;0.43;;;;;;;;;;5028079;28;20116;-85
2022/05/19 02:27:31;;;;;;;1.88;0.95;;;;;;;;;;5029168;28;20067;-84
2022/05/19 02:29:57;;;;;;;0.10;0.10;;;;;;;;;;5025657;28;20028;-84
2022/05/19 02:32:23;;;;;;;0.80;0.80;;;;;;;;;;5022441;28;20037;-85
2022/05/19 02:34:49;;;;;;;0.30;0.30;;;;;;;;;;5026148;28;20037;-86
2022/05/19 02:37:15;;;;;;;1.58;0.28;;;;;;;;;;5025205;28;20179;-86
2022/05/19 02:39:41;;;;;;;0.40;0.40;;;;;;;;;;5025763;28;20575;-85
2022/05/19 02:42:08;;;;;;;0.10;0.10;;;;;;;;;;5024885;28;20095;-85
2022/05/19 02:44:34;;;;;;;1.30;1.00;;;;;;;;;;5024223;28;20024;-86
2022/05/19 02:47:00;;;;;;;0.13;0.13;;;;;;;;;;5004002;28;20651;-86
2022/05/19 02:49:26;;;;;;;18.65;0.60;;;;;;;;;;5005512;28;20032;-85
2022/05/19 02:51:52;;;;;;;0.35;0.35;;;;;;;;;;5004927;28;20033;-86
2022/05/19 02:54:21;;;;;;;0.25;0.17;;;;;;;;;;5007349;28;20083;-86
2022/05/19 02:56:47;;;;;;;0.47;0.47;;;;;;;;;;5011084;28;20091;-84
2022/05/19 02:59:13;;;;;;;;;;;;;;;;;;5007400;28;20053;-86
2022/05/19 03:01:39;;;;;;;0.30;0.30;;;;;;;;;;5003473;28;20572;-86
2022/05/19 03:04:05;;;;;;;0.10;0.10;;;;;;;;;;5009005;28;20277;-85
2022/05/19 03:06:31;;;;;;;1.48;0.73;;;;;;;;;;5006670;28;20057;-85
2022/05/19 03:08:57;;;;;;;0.50;0.50;;;;;;;;;;5018209;28;20033;-86
2022/05/19 03:11:24;;;;;;;3.83;0.88;;;;;;;;;;5015391;28;20025;-86
2022/05/19 03:13:50;;;;;;;1.17;0.80;;;;;;;;;;5011726;28;20036;-84
2022/05/19 03:16:16;;;;;;;1.23;1.17;;;;;;;;;;5009024;28;20041;-85
2022/05/19 03:18:42;;;;;;;3.33;1.30;;;;;;;;;;5009975;28;20045;-88
2022/05/19 03:21:08;;;;;;;1.45;0.38;;;;;;;;;;5028444;28;20038;-88
2022/05/19 03:23:34;;;;;;;1.77;1.20;;;;;;;;;;5012094;28;20064;-88
2022/05/19 03:26:00;;;;;;;0.38;0.38;;;;;;;;;;5019310;28;20056;-88
2022/05/19 03:28:26;;;;;;;0.63;0.52;;;;;;;;;;5011375;28;20088;-87
2022/05/19 03:30:52;;;;;;;0.73;0.40;;;;;;;;;;5008217;28;20038;-88
2022/05/19 03:33:18;;;;;;;0.50;0.50;;;;;;;;;;5012703;28;20037;-87
2022/05/19 03:35:44;;;;;;;0.43;0.43;;;;;;;;;;5010908;28;20117;-88
2022/05/19 03:38:10;;;;;;;0.25;0.25;;;;;;;;;;5011323;28;20044;-87
2022/05/19 03:40:36;;;;;;;0.38;0.28;;;;;;;;;;5012983;28;20500;-76
2022/05/19 03:43:03;;;;;;;0.47;0.47;;;;;;;;;;5007270;28;20174;-77
2022/05/19 03:45:29;;;;;;;0.25;0.20;;;;;;;;;;5015902;28;20072;-77
2022/05/19 03:47:55;;;;;;;0.47;0.47;;;;;;;;;;5027982;28;20029;-77
2022/05/19 03:50:21;;;;;;;0.20;0.20;;;;;;;;;;5027206;28;20134;-77
2022/05/19 03:52:47;;;;;;;0.40;0.20;;;;;;;;;;5027289;28;20043;-77
2022/05/19 03:55:14;;;;;;;0.43;0.43;;;;;;;;;;5033637;28;20077;-77
2022/05/19 03:57:40;;;;;;;0.17;0.17;;;;;;;;;;5035958;28;21069;-77
2022/05/19 04:00:08;;;;;;;0.15;0.15;;;;;;;;;;5026473;28;20071;-76
2022/05/19 04:02:34;;;;;;;0.30;0.30;;;;;;;;;;5025980;28;20276;-77
2022/05/19 04:05:00;;;;;;;0.50;0.50;;;;;;;;;;5028519;28;20055;-78
2022/05/19 04:07:27;;;;;;;0.68;0.17;;;;;;;;;;5013730;28;20087;-77
2022/05/19 04:09:53;;;;;;;1.58;1.25;;;;;;;;;;5032884;28;20037;-77
2022/05/19 04:12:21;;;;;;;0.15;0.15;;;;;;;;;;5038821;28;20032;-77
2022/05/19 04:14:48;;;;;;;0.05;0.05;;;;;;;;;;5027236;28;20033;-77
2022/05/19 04:17:14;;;;;;;0.03;0.03;;;;;;;;;;5008117;28;20028;-79
2022/05/19 04:19:40;;;;;;;2.10;1.25;;;;;;;;;;5027269;28;20420;-77
2022/05/19 04:22:06;;;;;;;0.10;0.10;;;;;;;;;;5028219;28;20040;-77
2022/05/19 04:24:32;;;;;;;0.82;0.47;;;;;;;;;;5030200;28;20040;-77
2022/05/19 04:26:58;;;;;;;1.42;0.63;;;;;;;;;;5031580;28;20034;-77
2022/05/19 04:29:24;;;;;;;0.45;0.45;;;;;;;;;;5027923;28;20029;-77
2022/05/19 04:31:50;;;;;;;0.20;0.20;;;;;;;;;;5026056;28;20044;-76
2022/05/19 04:34:16;;;;;;;0.13;0.13;;;;;;;;;;5027032;28;20040;-77
2022/05/19 04:36:44;;;;;;;0.05;0.05;;;;;;;;;;5027657;28;21561;-77
2022/05/19 04:39:10;;;;;;;2.10;0.88;;;;;;;;;;5034298;28;20067;-77
2022/05/19 04:41:37;;;;;;;0.10;0.10;;;;;;;;;;5030789;28;20079;-87
2022/05/19 04:44:03;;;;;;;2.00;0.82;;;;;;;;;;5029045;28;20037;-87
2022/05/19 04:46:29;;;;;;;0.10;0.10;;;;;;;;;;5030953;28;20067;-88
2022/05/19 04:48:55;;;;;;;0.32;0.32;;;;;;;;;;5028386;28;20040;-87
2022/05/19 04:51:21;;;;;;;1.35;0.68;;;;;;;;;;5006171;28;20033;-86
2022/05/19 04:53:47;;;;;;;0.55;0.55;;;;;;;;;;5029941;28;20040;-86
2022/05/19 04:56:13;;;;;;;0.15;0.15;;;;;;;;;;5037976;28;20052;-87
2022/05/19 04:58:39;;;;;;;0.10;0.10;;;;;;;;;;5030957;28;20708;-84
2022/05/19 05:01:06;;;;;;;0.45;0.40;;;;;;;;;;5029776;28;20116;-84
2022/05/19 05:03:32;;;;;;;0.20;0.20;;;;;;;;;;5031953;28;20512;-85
2022/05/19 05:05:58;;;;;;;0.05;0.05;;;;;;;;;;5034691;28;20560;-84
2022/05/19 05:08:24;;;;;;;0.52;0.10;;;;;;;;;;5038518;28;20112;-82
2022/05/19 05:10:50;;;;;;;0.13;0.13;;;;;;;;;;5037398;28;20037;-81
2022/05/19 05:13:17;;;;;;;0.35;0.35;;;;;;;;;;5040390;28;20033;-83
2022/05/19 05:15:43;;;;;;;1.38;1.00;;;;;;;;;;5040663;28;20044;-86
2022/05/19 05:18:10;;;;;;;0.20;0.20;;;;;;;;;;5041985;28;20539;-88
2022/05/19 05:20:36;;;;;;;;;;;;;;;;;;5039244;28;20625;-88
2022/05/19 05:23:02;;;;;;;0.10;0.10;;;;;;;;;;5036016;28;19917;-83
2022/05/19 05:25:29;;;;;;;0.95;0.88;;;;;;;;;;5027452;28;20048;-82
2022/05/19 05:27:57;;;;;;;0.80;0.52;;;;;;;;;;5027897;28;20028;-83
2022/05/19 05:30:23;;;;;;;0.20;0.20;;;;;;;;;;5040428;28;21064;-81
2022/05/19 05:32:49;;;;;;;0.10;0.10;;;;;;;;;;5038663;28;20029;-82
2022/05/19 05:35:15;;;;;;;0.35;0.35;;;;;;;;;;5038932;28;20120;-83
2022/05/19 05:37:41;;;;;;;0.30;0.30;;;;;;;;;;5019237;28;20852;-83
2022/05/19 05:40:08;;;;;;;1.20;0.63;;;;;;;;;;5043573;28;20532;-77
2022/05/19 05:42:34;;;;;;;;;;;;;;;;;;5044251;28;20060;-77
2022/05/19 05:45:00;;;;;;;8.90;1.65;;;;;;;;;;5043159;28;19967;-77
2022/05/19 05:47:26;;;;;;;0.47;0.47;;;;;;;;;;5025238;28;20571;-77
2022/05/19 05:49:52;;;;;;;0.60;0.60;;;;;;;;;;5024804;28;20075;-78
2022/05/19 05:52:18;;;;;;;0.68;0.40;;;;;;;;;;5041777;28;20525;-77
2022/05/19 05:54:44;;;;;;;0.15;0.15;;;;;;;;;;5040306;28;20446;-78
2022/05/19 05:57:10;;;;;;;1.45;0.65;;;;;;;;;;5024264;28;20487;-77
2022/05/19 05:59:36;;;;;;;0.20;0.20;;;;;;;;;;5039338;28;20065;-77
2022/05/19 06:02:02;;;;;;;0.20;0.20;;;;;;;;;;5042264;28;20063;-77
2022/05/19 06:04:28;;;;;;;0.20;0.20;;;;;;;;;;5034216;28;20037;-77
2022/05/19 06:06:55;;;;;;;0.15;0.15;;;;;;;;;;5042953;28;20025;-77
2022/05/19 06:09:21;;;;;;;0.00;0.00;;;;;;;;;;5041702;28;20048;-77
2022/05/19 06:11:47;;;;;;;0.10;0.10;;;;;;;;;;5041975;28;20028;-78
2022/05/19 06:14:13;;;;;;;0.10;0.10;;;;;;;;;;5040711;28;20474;-77
2022/05/19 06:16:39;;;;;;;0.45;0.45;;;;;;;;;;5039911;28;20033;-77
2022/05/19 06:19:05;;;;;;;0.10;0.10;;;;;;;;;;5038210;28;20534;-77
2022/05/19 06:21:36;;;;;;;0.10;0.10;;;;;;;;;;5022788;28;20524;-76
2022/05/19 06:24:03;;;;;;;0.65;0.55;;;;;;;;;;5024888;28;20198;-77
2022/05/19 06:26:32;;;;;;;;;;;;;;;;;;5041758;28;20039;-76
2022/05/19 06:28:58;;;;;;;0.20;0.20;;;;;;;;;;5040723;28;19913;-76
2022/05/19 06:31:24;;;;;;;0.08;0.08;;;;;;;;;;5021640;28;20028;-76
2022/05/19 06:33:50;;;;;;;0.45;0.45;;;;;;;;;;5042271;28;20111;-75
2022/05/19 06:36:16;;;;;;;0.85;0.30;;;;;;;;;;5038383;28;20135;-77
2022/05/19 06:38:43;;;;;;;0.00;0.00;;;;;;;;;;5041450;28;20041;-77
2022/05/19 06:43:54;;;;;;;0.10;0.10;;;;;;;;;;5040900;28;20116;-75
2022/05/19 06:46:20;;;;;;;0.00;0.00;;;;;;;;;;5039389;28;20083;-77
2022/05/19 06:48:46;;;;;;;;;;;;;;;;;;5042087;28;20119;-76
2022/05/19 06:51:12;;;;;;;0.20;0.20;;;;;;;;;;5041803;28;20118;-76
2022/05/19 06:53:38;;;;;;;;;;;;;;;;;;5042210;28;20045;-77
2022/05/19 06:56:04;;;;;;;0.00;0.00;;;;;;;;;;5039612;28;19978;-75
2022/05/19 06:58:30;;;;;;;0.77;0.20;;;;;;;;;;5039327;28;20045;-75
2022/05/19 07:00:56;;;;;;;;;;;;;;;;;;5042914;28;20025;-75
2022/05/19 07:03:22;;;;;;;2.95;0.40;;;;;;;;;;5041346;28;19928;-75
2022/05/19 07:05:48;;;;;;;;;;;;;;;;;;5042029;28;20041;-75
2022/05/19 07:08:14;;;;;;;0.30;0.30;;;;;;;;;;5041493;28;19920;-75
2022/05/19 07:10:40;;;;;;;0.10;0.10;;;;;;;;;;5041131;28;20074;-75
2022/05/19 07:13:06;;;;;;;;;;;;;;;;;;5041900;28;20367;-75
2022/05/19 07:15:34;;;;;;;0.10;0.10;;;;;;;;;;5041611;28;19909;-75
2022/05/19 07:18:00;;;;;;;0.10;0.10;;;;;;;;;;5041563;28;20079;-75
2022/05/19 07:20:44;;;;;;;0.10;0.10;;;;;;;;;;5041517;28;20060;-75
2022/05/19 07:23:14;;;;;;;0.50;0.28;;;;;;;;;;5041331;28;20090;-75
2022/05/19 07:25:40;;;;;;;0.38;0.38;;;;;;;;;;5041601;28;20033;-75
2022/05/19 07:28:06;;;;;;;0.17;0.17;;;;;;;;;;5042109;28;20504;-75
2022/05/19 07:30:32;;;;;;;0.10;0.10;;;;;;;;;;5042040;28;20476;-75
2022/05/19 07:32:59;;;;;;;0.20;0.20;;;;;;;;;;5041124;28;20037;-75
2022/05/19 07:35:25;;;;;;;0.05;0.05;;;;;;;;;;5041152;28;20032;-75
2022/05/19 07:37:51;;;;;;;0.20;0.13;;;;;;;;;;5041226;28;20040;-74
2022/05/19 07:40:17;;;;;;;0.28;0.28;;;;;;;;;;5041275;28;20052;-75
2022/05/19 07:42:43;;;;;;;;;;;;;;;;;;5034629;28;20156;-75
2022/05/19 07:45:10;;;;;;;0.03;0.03;;;;;;;;;;5041018;28;20409;-75
2022/05/19 07:47:38;;;;;;;0.30;0.30;;;;;;;;;;5041214;28;20059;-75
2022/05/19 07:50:05;;;;;;;0.00;0.00;;;;;;;;;;5041177;28;20039;-75
2022/05/19 07:52:31;;;;;;;0.77;0.60;;;;;;;;;;5025429;28;20031;-75
2022/05/19 07:54:57;;;;;;;;;;;;;;;;;;5042502;28;20044;-75
2022/05/19 07:57:23;;;;;;;3.72;0.85;;;;;;;;;;5043172;28;19908;-75
2022/05/19 07:59:50;;;;;;;0.30;0.25;;;;;;;;;;5044743;28;20033;-75
2022/05/19 08:02:16;;;;;;;0.30;0.20;;;;;;;;;;5044375;28;20808;-75
2022/05/19 08:04:42;;;;;;;0.22;0.22;;;;;;;;;;5044821;28;20198;-75
2022/05/19 08:07:08;;;;;;;0.22;0.22;;;;;;;;;;5044363;28;20032;-75
2022/05/19 08:15:34;;;;;;;0.80;0.30;;;;;;;;;;5044518;28;20110;-76
2022/05/19 08:17:52;;;;;;;0.10;0.10;;;;;;;;;;5044539;28;20051;-75
2022/05/19 08:20:18;;;;;;;1.95;0.63;;;;;;;;;;5044533;28;20029;-75
2022/05/19 08:22:45;;;;;;;0.15;0.15;;;;;;;;;;5044396;28;20033;-76
2022/05/19 08:25:11;;;;;;;0.30;0.30;;;;;;;;;;5044401;28;20032;-75
2022/05/19 08:27:39;;;;;;;0.20;0.20;;;;;;;;;;5044776;28;20091;-76
2022/05/19 08:30:05;;;;;;;3.78;1.23;;;;;;;;;;5043933;28;20028;-75
2022/05/19 08:32:31;;;;;;;1.45;0.88;;;;;;;;;;5043659;28;20021;-76
2022/05/19 08:34:57;;;;;;;0.15;0.10;;;;;;;;;;5043900;28;20512;-75
2022/05/19 08:37:23;;;;;;;0.35;0.20;;;;;;;;;;5043931;28;20563;-75
2022/05/19 08:39:49;;;;;;;1.80;0.80;;;;;;;;;;5044379;28;20041;-76
2022/05/19 08:42:17;;;;;;;1.23;1.00;;;;;;;;;;5039204;28;20040;-75
2022/05/19 08:44:50;;;;;;;0.20;0.20;;;;;;;;;;5043886;28;20093;-76
2022/05/19 08:47:20;;;;;;;1.00;0.45;;;;;;;;;;5043714;28;20052;-76
2022/05/19 08:49:48;;;;;;;0.00;0.00;;;;;;;;;;5043529;28;20496;-76
2022/05/19 08:52:19;;;;;;;0.22;0.00;;;;;;;;;;5043799;28;20029;-76
2022/05/19 08:54:47;;;;;;;0.00;0.00;;;;;;;;;;5042841;28;20040;-75
2022/05/19 08:57:35;;;;;;;1.45;0.95;;;;;;;;;;5043139;28;20057;-75
2022/05/19 09:00:10;;;;;;;2.13;0.98;;;;;;;;;;4966133;28;20055;-76
2022/05/19 09:02:43;;;;;;;1.10;0.82;;;;;;;;;;4966366;28;20394;-75
2022/05/19 09:05:17;;;;;;;0.20;0.20;;;;;;;;;;4966305;28;20027;-75
2022/05/19 09:07:56;;;;;;;1.48;0.73;;;;;;;;;;4966476;28;20034;-75
2022/05/19 09:10:28;;;;;;;0.45;0.45;;;;;;;;;;4964821;28;20043;-75
2022/05/19 09:13:01;;;;;;;0.45;0.45;;;;;;;;;;4963854;28;20027;-75
2022/05/19 09:15:28;;;;;;;0.08;0.08;;;;;;;;;;4966329;28;20734;-74
2022/05/19 09:17:53;;;;;;;;;;;;;;;;;;4966271;28;20047;-75
2022/05/19 09:20:22;;;;;;;0.75;0.60;;;;;;;;;;4965854;28;19920;-75
2022/05/19 09:22:48;;;;;;;4.70;0.85;;;;;;;;;;4965558;28;20563;-76
2022/05/19 09:25:16;;;;;;;0.00;0.00;;;;;;;;;;4963074;28;20549;-75
2022/05/19 09:27:44;;;;;;;0.80;0.55;;;;;;;;;;4964524;28;20046;-75
2022/05/19 09:30:29;;;;;;;0.30;0.30;;;;;;;;;;4965989;28;20138;-75
2022/05/19 09:32:56;;;;;;;0.20;0.20;;;;;;;;;;4965620;28;20109;-75
2022/05/19 09:35:27;;;;;;;2.63;0.40;;;;;;;;;;4963533;28;20065;-76
2022/05/19 09:38:13;;;;;;;7.55;1.83;;;;;;;;;;5022381;28;20128;-76
2022/05/19 09:40:40;;;;;;;1.65;0.73;;;;;;;;;;5033321;28;20033;-80
2022/05/19 09:43:16;;;;;;;0.85;0.45;;;;;;;;;;5028717;28;20139;-80
2022/05/19 09:45:46;;;;;;;0.20;0.20;;;;;;;;;;5034537;28;20071;-80
2022/05/19 09:48:13;;;;;;;0.20;0.20;;;;;;;;;;5034005;28;20083;-80
2022/05/19 09:50:47;;;;;;;4.10;1.08;;;;;;;;;;5033310;28;20104;-80
2022/05/19 09:53:17;;;;;;;0.03;0.03;;;;;;;;;;5034843;28;20033;-80
2022/05/19 09:55:44;;;;;;;1.10;0.63;;;;;;;;;;5042995;28;20025;-79
2022/05/19 09:58:13;;;;;;;0.32;0.32;;;;;;;;;;5042483;28;20318;-78
2022/05/19 10:00:56;;;;;;;4.05;1.38;;;;;;;;;;5028194;28;20064;-80
2022/05/19 10:03:25;;;;;;;0.10;0.10;;;;;;;;;;5042348;28;20768;-81
2022/05/19 10:05:55;;;;;;;0.17;0.17;;;;;;;;;;5037948;28;20032;-81
2022/05/19 10:08:25;;;;;;;0.30;0.30;;;;;;;;;;5032968;28;20028;-81
2022/05/19 10:11:00;;;;;;;0.85;0.50;;;;;;;;;;5042669;28;20025;-81
2022/05/19 10:13:28;;;;;;;13.53;0.30;;;;;;;;;;5039109;28;20631;-81
2022/05/19 10:16:01;;;;;;;3.67;0.20;;;;;;;;;;5031175;28;20018;-81
2022/05/19 10:18:37;;;;;;;1.05;0.68;;;;;;;;;;5032905;28;20108;-81
2022/05/19 10:21:14;;;;;;;1.08;0.88;;;;;;;;;;5033199;28;20583;-81
2022/05/19 10:23:58;;;;;;;1.85;0.60;;;;;;;;;;5032670;28;20404;-81
2022/05/19 10:26:24;;;;;;;0.28;0.28;;;;;;;;;;5031233;28;20040;-81
2022/05/19 10:31:39;;;;;;;0.15;0.15;;;;;;;;;;4957952;28;20655;-81
2022/05/19 10:34:24;;;;;;;1.30;0.80;;;;;;;;;;4954541;28;20046;-82
2022/05/19 10:36:54;;;;;;;0.15;0.15;;;;;;;;;;4956038;28;20499;-81
2022/05/19 10:39:26;;;;;;;4.40;2.08;;;;;;;;;;4956400;28;20049;-81
2022/05/19 10:42:10;;;;;;;4.68;0.13;;;;;;;;;;4952082;28;20031;-81
2022/05/19 10:44:36;;;;;;;0.47;0.47;;;;;;;;;;4955567;28;20535;-81
2022/05/19 10:47:02;;;;;;;0.50;0.30;;;;;;;;;;4958250;28;20082;-80
2022/05/19 10:49:43;;;;;;;0.20;0.20;;;;;;;;;;4960427;28;20050;-81
2022/05/19 10:52:28;;;;;;;0.32;0.32;;;;;;;;;;4960421;28;20034;-81
2022/05/19 10:55:05;;;;;;;0.93;0.93;;;;;;;;;;4958478;28;20958;-81
2022/05/19 10:57:40;;;;;;;2.17;1.00;;;;;;;;;;4960493;28;20177;-81
2022/05/19 11:00:06;;;;;;;0.98;0.52;;;;;;;;;;4959565;28;20078;-81
2022/05/19 11:02:32;;;;;;;;;;;;;;;;;;4957089;28;20082;-81
2022/05/19 11:05:13;;;;;;;6.03;1.75;;;;;;;;;;4959665;28;20372;-81
2022/05/19 11:08:01;;;;;;;0.52;0.10;;;;;;;;;;4962719;28;20384;-81
2022/05/19 11:10:33;;;;;;;0.77;0.77;;;;;;;;;;5034183;28;20049;-82
2022/05/19 11:13:08;;;;;;;0.28;0.28;;;;;;;;;;5025309;28;20029;-82
2022/05/19 11:15:44;;;;;;;1.55;0.50;;;;;;;;;;5015217;28;20033;-82
2022/05/19 11:18:12;;;;;;;;;;;;;;;;;;5026537;28;20514;-82
2022/05/19 11:20:53;;;;;;;0.55;0.40;;;;;;;;;;5009070;28;20394;-82
2022/05/19 11:23:31;;;;;;;0.70;0.43;;;;;;;;;;5013703;28;20039;-81
2022/05/19 11:26:26;;;;;;;1.00;0.85;;;;;;;;;;5036084;28;20057;-82
2022/05/19 11:28:58;;;;;;;0.50;0.40;;;;;;;;;;5040490;28;20029;-81
2022/05/19 11:31:27;;;;;;;2.30;1.02;;;;;;;;;;5023980;28;20048;-81
2022/05/19 11:33:55;;;;;;;0.08;0.08;;;;;;;;;;5046116;28;20492;-81
2022/05/19 11:36:32;;;;;;;0.70;0.70;;;;;;;;;;5045085;28;20056;-81
2022/05/19 11:38:58;;;;;;;0.20;0.20;;;;;;;;;;5045423;28;20047;-81
2022/05/19 11:41:26;;;;;;;1.08;0.93;;;;;;;;;;5039095;28;20456;-81
2022/05/19 11:44:11;;;;;;;1.23;0.93;;;;;;;;;;5032014;28;20025;-80
2022/05/19 11:46:56;;;;;;;0.25;0.17;;;;;;;;;;5029783;28;20637;-81
2022/05/19 11:55:39;;;;;;;0.65;0.45;;;;;;;;;;5043348;28;20511;-80
2022/05/19 11:58:09;;;;;;;1.27;0.88;;;;;;;;;;5045331;28;20068;-80
2022/05/19 12:00:38;;;;;;;1.50;0.88;;;;;;;;;;5027105;28;20020;-81
2022/05/19 12:03:07;;;;;;;1.00;0.75;;;;;;;;;;5044321;28;20400;-81
2022/05/19 12:05:35;;;;;;;1.08;0.82;;;;;;;;;;5044249;28;20044;-81
2022/05/19 12:08:23;;;;;;;0.32;0.22;;;;;;;;;;5044060;28;20060;-81
2022/05/19 12:10:50;;;;;;;0.15;0.15;;;;;;;;;;5030506;28;20037;-81
2022/05/19 12:13:19;;;;;;;0.28;0.28;;;;;;;;;;5025597;28;20426;-81
2022/05/19 12:15:58;;;;;;;0.70;0.47;;;;;;;;;;5041091;28;20033;-81
2022/05/19 12:18:24;;;;;;;0.22;0.22;;;;;;;;;;5026249;28;20045;-81
2022/05/19 12:21:13;;;;;;;0.30;0.30;;;;;;;;;;5044156;28;20530;-81
2022/05/19 12:23:40;;;;;;;1.83;0.57;;;;;;;;;;5044326;28;20136;-81
2022/05/19 12:26:19;;;;;;;0.95;0.68;;;;;;;;;;5044552;28;20075;-81
2022/05/19 12:28:45;;;;;;;1.17;0.73;;;;;;;;;;5030051;28;20042;-81
2022/05/19 12:34:05;;;;;;;0.22;0.22;;;;;;;;;;5028996;28;20484;-80
2022/05/19 12:36:31;;;;;;;0.60;0.60;;;;;;;;;;5044221;28;20469;-81
2022/05/19 12:39:16;;;;;;;0.85;0.40;;;;;;;;;;5043943;28;20082;-81
2022/05/19 12:41:51;;;;;;;4.78;0.98;;;;;;;;;;5039239;28;20033;-75
2022/05/19 12:44:53;;;;;;;0.50;0.20;;;;;;;;;;5025738;28;20037;-75
2022/05/19 12:47:22;;;;;;;0.57;0.45;;;;;;;;;;4945177;28;20051;-75
2022/05/19 12:50:08;;;;;;;0.38;0.30;;;;;;;;;;4944870;28;20046;-75
2022/05/19 12:52:53;;;;;;;0.50;0.50;;;;;;;;;;4929953;28;20189;-75
2022/05/19 12:55:23;;;;;;;0.65;0.65;;;;;;;;;;4942700;28;20035;-75
2022/05/19 12:57:50;;;;;;;1.00;0.63;;;;;;;;;;4942461;29;20079;-75
2022/05/19 13:00:21;;;;;;;0.73;0.52;;;;;;;;;;4944699;28;20070;-75
2022/05/19 13:02:54;;;;;;;0.22;0.22;;;;;;;;;;4945822;28;20059;-75
2022/05/19 13:05:22;;;;;;;0.35;0.35;;;;;;;;;;4946311;28;20519;-75
2022/05/19 13:07:56;;;;;;;1.25;0.77;;;;;;;;;;4944423;28;20523;-75
2022/05/19 13:10:24;;;;;;;0.30;0.30;;;;;;;;;;4943322;28;20078;-75
2022/05/19 13:12:53;;;;;;;0.82;0.43;;;;;;;;;;4944822;28;20039;-75
2022/05/19 13:15:24;;;;;;;1.48;0.28;;;;;;;;;;4945025;28;20118;-75
2022/05/19 13:17:51;;;;;;;0.30;0.30;;;;;;;;;;4944825;28;20050;-75
2022/05/19 13:20:23;;;;;;;0.47;0.38;;;;;;;;;;4943975;28;20044;-75
2022/05/19 13:22:51;;;;;;;4.03;0.47;;;;;;;;;;4977199;28;20064;-75
2022/05/19 13:25:17;;;;;;;6.75;1.85;;;;;;;;;;5023216;28;20044;-75
2022/05/19 13:30:31;;;;;;;1.38;0.68;;;;;;;;;;5023706;28;20060;-76
2022/05/19 13:33:06;;;;;;;2.63;1.27;;;;;;;;;;5023055;28;20937;-75
2022/05/19 13:35:32;;;;;;;14.00;1.60;;;;;;;;;;5023378;28;20108;-75
2022/05/19 13:38:00;;;;;;;1.23;0.73;;;;;;;;;;5022568;28;20033;-75
2022/05/19 13:40:36;;;;;;;0.50;0.25;;;;;;;;;;5021843;28;20044;-75
2022/05/19 13:43:05;;;;;;;1.60;0.80;;;;;;;;;;5019793;28;20033;-75
2022/05/19 13:45:36;;;;;;;5.15;2.30;;;;;;;;;;5027801;28;20053;-75
2022/05/19 13:48:11;;;;;;;0.17;0.17;;;;;;;;;;5042710;28;20033;-75
2022/05/19 13:50:37;;;;;;;0.00;0.00;;;;;;;;;;5042659;28;20064;-75
2022/05/19 13:53:05;;;;;;;0.60;0.47;;;;;;;;;;5043294;28;20036;-75
2022/05/19 13:55:33;;;;;;;5.00;0.52;;;;;;;;;;5041932;28;20409;-76
2022/05/19 13:57:59;;;;;;;1.27;0.88;;;;;;;;;;5043029;28;20029;-75
2022/05/19 14:00:28;;;;;;;4.30;1.33;;;;;;;;;;5042239;28;20056;-75
2022/05/19 14:02:56;;;;;;;0.38;0.38;;;;;;;;;;5042623;28;20119;-75
2022/05/19 14:05:29;;;;;;;1.27;0.63;;;;;;;;;;5042333;28;20029;-75
2022/05/19 14:07:58;;;;;;;1.45;0.88;;;;;;;;;;5042479;28;20124;-75
2022/05/19 14:10:26;;;;;;;0.30;0.30;;;;;;;;;;5042811;28;20021;-75
2022/05/19 14:12:54;;;;;;;0.32;0.32;;;;;;;;;;5043372;28;20033;-76
2022/05/19 14:15:22;;;;;;;6.50;1.80;;;;;;;;;;5024479;28;20040;-75
2022/05/19 14:17:54;;;;;;;0.55;0.55;;;;;;;;;;5023993;28;20044;-75
2022/05/19 14:20:29;;;;;;;6.10;0.98;;;;;;;;;;5041976;28;20036;-75
2022/05/19 14:22:56;;;;;;;0.70;0.68;;;;;;;;;;5042121;28;20396;-75
2022/05/19 14:25:23;;;;;;;0.60;0.60;;;;;;;;;;5042835;28;20040;-75
2022/05/19 14:27:53;;;;;;;1.85;0.98;;;;;;;;;;5043209;28;20033;-75
2022/05/19 14:30:19;;;;;;;0.65;0.65;;;;;;;;;;5042793;28;20163;-75
2022/05/19 14:32:53;;;;;;;0.60;0.35;;;;;;;;;;5042158;28;20135;-75
2022/05/19 14:35:24;;;;;;;0.98;0.68;;;;;;;;;;5042068;28;20820;-75
2022/05/19 14:38:00;;;;;;;0.95;0.32;;;;;;;;;;5022625;28;20083;-75
2022/05/19 14:43:36;;;;;;;0.30;0.30;;;;;;;;;;5041665;28;20078;-80
2022/05/19 14:46:03;;;;;;;0.15;0.15;;;;;;;;;;5038500;28;20131;-81
2022/05/19 14:48:38;;;;;;;0.95;0.82;;;;;;;;;;5041540;28;20116;-80
2022/05/19 14:51:07;;;;;;;0.20;0.20;;;;;;;;;;5041354;28;20044;-80
2022/05/19 14:53:35;;;;;;;0.20;0.20;;;;;;;;;;5041808;28;20043;-80
2022/05/19 14:56:09;;;;;;;0.45;0.30;;;;;;;;;;5041601;28;20112;-80
2022/05/19 14:58:40;;;;;;;0.30;0.30;;;;;;;;;;5026036;28;20571;-80
2022/05/19 15:01:07;;;;;;;5.93;0.68;;;;;;;;;;5038745;28;20045;-80
2022/05/19 15:03:33;;;;;;;3.50;1.55;;;;;;;;;;5042090;28;20479;-81
2022/05/19 15:05:59;;;;;;;1.30;0.85;;;;;;;;;;5043182;28;20033;-80
2022/05/19 15:08:27;;;;;;;8.18;1.23;;;;;;;;;;5046433;28;20032;-81
2022/05/19 15:10:53;;;;;;;0.20;0.20;;;;;;;;;;5045838;28;20099;-80
2022/05/19 15:13:19;;;;;;;0.40;0.20;;;;;;;;;;5046019;28;20036;-80
2022/05/19 15:15:45;;;;;;;0.13;0.13;;;;;;;;;;5046228;28;20029;-81
2022/05/19 15:18:11;;;;;;;0.52;0.30;;;;;;;;;;5039205;28;20103;-78
2022/05/19 15:20:38;;;;;;;0.28;0.28;;;;;;;;;;5026836;28;20447;-77
2022/05/19 15:23:05;;;;;;;0.13;0.13;;;;;;;;;;5043753;28;20035;-77
2022/05/19 15:25:31;;;;;;;8.48;0.88;;;;;;;;;;5042124;28;20033;-78
2022/05/19 15:27:58;;;;;;;9.07;1.75;;;;;;;;;;5045602;28;20036;-77